Sekiu, WA (98381)

2:11 AM PDT on August 05, 2015 (GMT -0700)
Curley's Resort & Dive Center | | Change Station
CLOSE
Current Station
Personal Weather Station
Location: Sekiu, WA
Elevation: 12 ft
Nearby Weather Stations

Elev 12 ft 48.26 °N, 124.30 °W | Updated 8 minutes ago

Overcast
Overcast
--
Feels Like --
N
-
Wind Variable Wind from North

Today
High -- | Low -- °F
--% Chance of Precip.
Yesterday
High -- | Low -- °F
Precip. -- in
5:57 AM 8:47 PM
Waning Gibbous, 69% visible
Pressure 30.07 in
Visibility 8.0 miles
Clouds Overcast 1600 ft
Dew Point Not available.
Humidity Not available.
Rainfall 0.00 in
Snow Depth Not available.
UV 0 out of 12
Pollen 4.40 out of 12
Air Quality Not available.
Flu Activity Not available.
METAR KUIL 050853Z AUTO 00000KT 8SM OVC016 13/12 A3007 RMK AO2 SLP183 T01280122 50001

More Conditions Fewer Conditions

Pressure 30.07 in
Visibility 8.0 miles
Clouds Overcast 1600 ft
Dew Point Not available.
Humidity Not available.
Rainfall 0.00 in
Snow Depth Not available.
UV 0 out of 12
Pollen 4.40 out of 12
Air Quality Not available.
Flu Activity Not available.
METAR KUIL 050853Z AUTO 00000KT 8SM OVC016 13/12 A3007 RMK AO2 SLP183 T01280122 50001

More Conditions Fewer Conditions

10-Day Weather Forecast

×

Almanac

Astronomy

Aug. 05, 2015 Rise Set
Actual Time
Civil Twilight
Nautical Twilight
Astronomical Twilight
Moon
Length of Visible Light
Length of Day
Tomorrow will be .
, % of the Moon is Illuminated

Today's Extremes

State Highs State Lows

Community

WunderPhotos

Upload Photos

1,844,105 photos uploaded!

WunderBlogs® & News

Nearby

Air Quality

  Air Quality AQ Index Pollutant
Not available.

Snow Depth

Station Depth Elevation

Earthquake Activity

City Distance Mag. Time & Date
Minimum magnitude displayed is 2.5.

Coastal Water Temperatures

Place Temperature

Stations

Nearby Weather Stations

Station Location Temp. Windchill Dew Point Humidity Wind Precip. Elev Updated Type